sensor_id;sensor_type;location;lat;lon;timestamp;temperature;humidity
44863;DHT22;30597;49.628;10.850;2023-09-18T00:02:20;25.00;67.30
44863;DHT22;30597;49.628;10.850;2023-09-18T00:04:46;25.00;67.20
44863;DHT22;30597;49.628;10.850;2023-09-18T00:07:11;25.00;67.40
44863;DHT22;30597;49.628;10.850;2023-09-18T00:09:37;25.00;67.30
44863;DHT22;30597;49.628;10.850;2023-09-18T00:12:03;25.00;67.50
44863;DHT22;30597;49.628;10.850;2023-09-18T00:14:28;25.00;67.50
44863;DHT22;30597;49.628;10.850;2023-09-18T00:16:54;24.90;67.40
44863;DHT22;30597;49.628;10.850;2023-09-18T00:19:22;24.90;67.60
44863;DHT22;30597;49.628;10.850;2023-09-18T00:21:48;24.90;67.80
44863;DHT22;30597;49.628;10.850;2023-09-18T00:24:14;24.90;67.80
44863;DHT22;30597;49.628;10.850;2023-09-18T00:26:40;24.90;67.80
44863;DHT22;30597;49.628;10.850;2023-09-18T00:29:05;24.90;67.80
44863;DHT22;30597;49.628;10.850;2023-09-18T00:31:31;24.90;68.00
44863;DHT22;30597;49.628;10.850;2023-09-18T00:33:56;24.90;67.90
44863;DHT22;30597;49.628;10.850;2023-09-18T00:36:22;24.90;68.00
44863;DHT22;30597;49.628;10.850;2023-09-18T00:38:47;24.90;68.30
44863;DHT22;30597;49.628;10.850;2023-09-18T00:41:13;24.90;68.20
44863;DHT22;30597;49.628;10.850;2023-09-18T00:43:38;24.90;68.50
44863;DHT22;30597;49.628;10.850;2023-09-18T00:46:04;24.90;68.60
44863;DHT22;30597;49.628;10.850;2023-09-18T00:48:30;24.90;68.70
44863;DHT22;30597;49.628;10.850;2023-09-18T00:50:56;24.80;68.90
44863;DHT22;30597;49.628;10.850;2023-09-18T00:53:23;24.90;69.20
44863;DHT22;30597;49.628;10.850;2023-09-18T00:55:53;24.80;69.40
44863;DHT22;30597;49.628;10.850;2023-09-18T00:58:19;24.80;69.60
44863;DHT22;30597;49.628;10.850;2023-09-18T01:00:45;24.80;69.90
44863;DHT22;30597;49.628;10.850;2023-09-18T01:03:11;24.80;69.70
44863;DHT22;30597;49.628;10.850;2023-09-18T01:05:37;24.80;70.20
44863;DHT22;30597;49.628;10.850;2023-09-18T01:08:02;24.80;70.40
44863;DHT22;30597;49.628;10.850;2023-09-18T01:10:36;24.80;70.20
44863;DHT22;30597;49.628;10.850;2023-09-18T01:13:11;24.80;70.80
44863;DHT22;30597;49.628;10.850;2023-09-18T01:15:52;24.80;71.50
44863;DHT22;30597;49.628;10.850;2023-09-18T01:18:19;24.80;72.00
44863;DHT22;30597;49.628;10.850;2023-09-18T01:20:45;24.80;72.20
44863;DHT22;30597;49.628;10.850;2023-09-18T01:23:10;24.80;72.50
44863;DHT22;30597;49.628;10.850;2023-09-18T01:25:37;24.80;72.40
44863;DHT22;30597;49.628;10.850;2023-09-18T01:28:03;24.80;72.40
44863;DHT22;30597;49.628;10.850;2023-09-18T01:30:29;24.80;72.50
44863;DHT22;30597;49.628;10.850;2023-09-18T01:32:56;24.80;72.40
44863;DHT22;30597;49.628;10.850;2023-09-18T01:35:22;24.70;72.50
44863;DHT22;30597;49.628;10.850;2023-09-18T01:37:58;24.80;72.80
44863;DHT22;30597;49.628;10.850;2023-09-18T01:40:25;24.80;72.80
44863;DHT22;30597;49.628;10.850;2023-09-18T01:42:52;24.70;72.80
44863;DHT22;30597;49.628;10.850;2023-09-18T01:45:17;24.70;72.50
44863;DHT22;30597;49.628;10.850;2023-09-18T01:47:43;24.80;73.60
44863;DHT22;30597;49.628;10.850;2023-09-18T01:50:09;24.70;72.50
44863;DHT22;30597;49.628;10.850;2023-09-18T01:52:35;24.70;72.60
44863;DHT22;30597;49.628;10.850;2023-09-18T01:55:01;24.70;72.60
44863;DHT22;30597;49.628;10.850;2023-09-18T01:57:27;24.70;72.60
44863;DHT22;30597;49.628;10.850;2023-09-18T01:59:52;24.70;72.60
44863;DHT22;30597;49.628;10.850;2023-09-18T02:02:18;24.70;72.60
44863;DHT22;30597;49.628;10.850;2023-09-18T02:04:43;24.70;72.80
44863;DHT22;30597;49.628;10.850;2023-09-18T02:07:10;24.70;72.70
44863;DHT22;30597;49.628;10.850;2023-09-18T02:09:36;24.70;72.50
44863;DHT22;30597;49.628;10.850;2023-09-18T02:12:01;24.70;72.60
44863;DHT22;30597;49.628;10.850;2023-09-18T02:14:28;24.70;72.70
44863;DHT22;30597;49.628;10.850;2023-09-18T02:16:56;24.70;72.70
44863;DHT22;30597;49.628;10.850;2023-09-18T02:19:22;24.70;72.70
44863;DHT22;30597;49.628;10.850;2023-09-18T02:21:47;24.70;72.70
44863;DHT22;30597;49.628;10.850;2023-09-18T02:24:13;24.70;72.70
44863;DHT22;30597;49.628;10.850;2023-09-18T02:26:38;24.70;72.80
44863;DHT22;30597;49.628;10.850;2023-09-18T02:29:07;24.70;72.80
44863;DHT22;30597;49.628;10.850;2023-09-18T02:31:36;24.60;72.80
44863;DHT22;30597;49.628;10.850;2023-09-18T02:34:01;24.70;72.80
44863;DHT22;30597;49.628;10.850;2023-09-18T02:36:27;24.70;73.00
44863;DHT22;30597;49.628;10.850;2023-09-18T02:38:53;24.70;73.00
44863;DHT22;30597;49.628;10.850;2023-09-18T02:41:18;24.60;72.90
44863;DHT22;30597;49.628;10.850;2023-09-18T02:43:44;24.60;73.00
44863;DHT22;30597;49.628;10.850;2023-09-18T02:46:09;24.70;73.00
44863;DHT22;30597;49.628;10.850;2023-09-18T02:48:35;24.60;72.90
44863;DHT22;30597;49.628;10.850;2023-09-18T02:51:01;24.60;72.90
44863;DHT22;30597;49.628;10.850;2023-09-18T02:53:27;24.60;73.30
44863;DHT22;30597;49.628;10.850;2023-09-18T02:55:55;24.60;73.20
44863;DHT22;30597;49.628;10.850;2023-09-18T02:58:22;24.70;73.20
44863;DHT22;30597;49.628;10.850;2023-09-18T03:00:49;24.60;73.00
44863;DHT22;30597;49.628;10.850;2023-09-18T03:03:16;24.60;73.00
44863;DHT22;30597;49.628;10.850;2023-09-18T03:05:42;24.60;73.30
44863;DHT22;30597;49.628;10.850;2023-09-18T03:08:09;24.60;73.10
44863;DHT22;30597;49.628;10.850;2023-09-18T03:10:35;24.60;73.30
44863;DHT22;30597;49.628;10.850;2023-09-18T03:13:02;24.60;73.40
44863;DHT22;30597;49.628;10.850;2023-09-18T03:15:28;24.60;73.20
44863;DHT22;30597;49.628;10.850;2023-09-18T03:17:53;24.60;72.80
44863;DHT22;30597;49.628;10.850;2023-09-18T03:20:22;24.60;73.00
44863;DHT22;30597;49.628;10.850;2023-09-18T03:22:48;24.60;73.20
44863;DHT22;30597;49.628;10.850;2023-09-18T03:25:14;24.50;73.10
44863;DHT22;30597;49.628;10.850;2023-09-18T03:27:39;24.60;73.10
44863;DHT22;30597;49.628;10.850;2023-09-18T03:30:05;24.60;73.10
44863;DHT22;30597;49.628;10.850;2023-09-18T03:32:32;24.60;73.20
44863;DHT22;30597;49.628;10.850;2023-09-18T03:34:57;24.60;73.00
44863;DHT22;30597;49.628;10.850;2023-09-18T03:37:23;24.60;73.00
44863;DHT22;30597;49.628;10.850;2023-09-18T03:39:48;24.50;73.00
44863;DHT22;30597;49.628;10.850;2023-09-18T03:42:14;24.60;73.10
44863;DHT22;30597;49.628;10.850;2023-09-18T03:44:39;24.50;73.00
44863;DHT22;30597;49.628;10.850;2023-09-18T03:47:05;24.50;73.00
44863;DHT22;30597;49.628;10.850;2023-09-18T03:49:30;24.50;72.90
44863;DHT22;30597;49.628;10.850;2023-09-18T03:51:56;24.50;72.90
44863;DHT22;30597;49.628;10.850;2023-09-18T03:54:21;24.50;73.00
44863;DHT22;30597;49.628;10.850;2023-09-18T03:56:47;24.50;73.00
44863;DHT22;30597;49.628;10.850;2023-09-18T03:59:13;24.50;73.10
44863;DHT22;30597;49.628;10.850;2023-09-18T04:01:39;24.50;72.90
44863;DHT22;30597;49.628;10.850;2023-09-18T04:04:05;24.50;73.00
44863;DHT22;30597;49.628;10.850;2023-09-18T04:06:43;24.50;72.90
44863;DHT22;30597;49.628;10.850;2023-09-18T04:09:09;24.50;73.00
44863;DHT22;30597;49.628;10.850;2023-09-18T04:11:35;24.50;72.90
44863;DHT22;30597;49.628;10.850;2023-09-18T04:14:01;24.50;73.70
44863;DHT22;30597;49.628;10.850;2023-09-18T04:16:27;24.50;72.90
44863;DHT22;30597;49.628;10.850;2023-09-18T04:19:02;24.50;72.90
44863;DHT22;30597;49.628;10.850;2023-09-18T04:21:28;24.50;72.80
44863;DHT22;30597;49.628;10.850;2023-09-18T04:23:57;24.50;72.80
44863;DHT22;30597;49.628;10.850;2023-09-18T04:26:27;24.50;72.90
44863;DHT22;30597;49.628;10.850;2023-09-18T04:29:00;24.50;72.80
44863;DHT22;30597;49.628;10.850;2023-09-18T04:31:26;24.50;73.00
44863;DHT22;30597;49.628;10.850;2023-09-18T04:33:53;24.50;72.80
44863;DHT22;30597;49.628;10.850;2023-09-18T04:36:18;24.50;72.70
44863;DHT22;30597;49.628;10.850;2023-09-18T04:38:44;24.50;72.80
44863;DHT22;30597;49.628;10.850;2023-09-18T04:41:09;24.50;72.80
44863;DHT22;30597;49.628;10.850;2023-09-18T04:43:37;24.50;73.00
44863;DHT22;30597;49.628;10.850;2023-09-18T04:46:03;24.50;73.10
44863;DHT22;30597;49.628;10.850;2023-09-18T04:48:30;24.50;73.00
44863;DHT22;30597;49.628;10.850;2023-09-18T04:50:56;24.40;73.10
44863;DHT22;30597;49.628;10.850;2023-09-18T04:53:22;24.50;73.20
44863;DHT22;30597;49.628;10.850;2023-09-18T04:55:47;24.40;73.20
44863;DHT22;30597;49.628;10.850;2023-09-18T04:58:17;24.40;73.20
44863;DHT22;30597;49.628;10.850;2023-09-18T05:00:42;24.50;73.10
44863;DHT22;30597;49.628;10.850;2023-09-18T05:03:09;24.40;73.10
44863;DHT22;30597;49.628;10.850;2023-09-18T05:05:35;24.40;73.20
44863;DHT22;30597;49.628;10.850;2023-09-18T05:08:07;24.50;73.10
44863;DHT22;30597;49.628;10.850;2023-09-18T05:10:36;24.50;70.20
44863;DHT22;30597;49.628;10.850;2023-09-18T05:13:02;24.50;68.40
44863;DHT22;30597;49.628;10.850;2023-09-18T05:15:29;24.50;68.90
44863;DHT22;30597;49.628;10.850;2023-09-18T05:17:55;24.50;69.20
44863;DHT22;30597;49.628;10.850;2023-09-18T05:20:24;24.50;69.50
44863;DHT22;30597;49.628;10.850;2023-09-18T05:22:53;24.60;69.50
44863;DHT22;30597;49.628;10.850;2023-09-18T05:25:20;24.50;69.20
44863;DHT22;30597;49.628;10.850;2023-09-18T05:27:47;24.50;69.30
44863;DHT22;30597;49.628;10.850;2023-09-18T05:30:21;24.50;69.40
44863;DHT22;30597;49.628;10.850;2023-09-18T05:32:47;24.50;69.60
44863;DHT22;30597;49.628;10.850;2023-09-18T05:35:14;24.60;69.40
44863;DHT22;30597;49.628;10.850;2023-09-18T05:37:40;24.60;69.50
44863;DHT22;30597;49.628;10.850;2023-09-18T05:40:09;24.60;69.60
44863;DHT22;30597;49.628;10.850;2023-09-18T05:42:38;24.60;69.30
44863;DHT22;30597;49.628;10.850;2023-09-18T05:45:04;24.60;69.20
44863;DHT22;30597;49.628;10.850;2023-09-18T05:47:34;24.60;69.10
44863;DHT22;30597;49.628;10.850;2023-09-18T05:50:02;24.60;69.30
44863;DHT22;30597;49.628;10.850;2023-09-18T05:52:29;24.70;69.40
44863;DHT22;30597;49.628;10.850;2023-09-18T05:54:54;24.70;69.10
44863;DHT22;30597;49.628;10.850;2023-09-18T05:57:20;24.80;69.00
44863;DHT22;30597;49.628;10.850;2023-09-18T05:59:46;24.80;68.90
44863;DHT22;30597;49.628;10.850;2023-09-18T06:02:12;24.80;68.80
44863;DHT22;30597;49.628;10.850;2023-09-18T06:04:37;24.80;68.70
44863;DHT22;30597;49.628;10.850;2023-09-18T06:07:03;24.80;68.70
44863;DHT22;30597;49.628;10.850;2023-09-18T06:09:29;24.80;68.70
44863;DHT22;30597;49.628;10.850;2023-09-18T06:11:55;24.80;68.70
44863;DHT22;30597;49.628;10.850;2023-09-18T06:14:20;24.90;68.70
44863;DHT22;30597;49.628;10.850;2023-09-18T06:16:46;24.90;68.60
44863;DHT22;30597;49.628;10.850;2023-09-18T06:19:11;24.90;68.50
44863;DHT22;30597;49.628;10.850;2023-09-18T06:21:37;24.90;68.40
44863;DHT22;30597;49.628;10.850;2023-09-18T06:24:02;24.90;68.20
44863;DHT22;30597;49.628;10.850;2023-09-18T06:26:28;24.90;68.50
44863;DHT22;30597;49.628;10.850;2023-09-18T06:28:54;24.90;68.40
44863;DHT22;30597;49.628;10.850;2023-09-18T06:31:20;24.90;68.30
44863;DHT22;30597;49.628;10.850;2023-09-18T06:33:46;25.00;68.20
44863;DHT22;30597;49.628;10.850;2023-09-18T06:36:13;25.00;68.20
44863;DHT22;30597;49.628;10.850;2023-09-18T06:38:38;25.00;68.20
44863;DHT22;30597;49.628;10.850;2023-09-18T06:41:04;25.10;68.10
44863;DHT22;30597;49.628;10.850;2023-09-18T06:43:29;25.00;68.10
44863;DHT22;30597;49.628;10.850;2023-09-18T06:45:55;25.00;68.00
44863;DHT22;30597;49.628;10.850;2023-09-18T06:48:23;25.00;67.90
44863;DHT22;30597;49.628;10.850;2023-09-18T06:50:49;25.00;68.00
44863;DHT22;30597;49.628;10.850;2023-09-18T06:53:14;25.00;67.80
44863;DHT22;30597;49.628;10.850;2023-09-18T06:55:40;25.00;67.80
44863;DHT22;30597;49.628;10.850;2023-09-18T06:58:05;25.10;67.80
44863;DHT22;30597;49.628;10.850;2023-09-18T07:00:31;25.10;67.60
44863;DHT22;30597;49.628;10.850;2023-09-18T07:02:56;25.00;67.30
44863;DHT22;30597;49.628;10.850;2023-09-18T07:05:22;25.00;67.40
44863;DHT22;30597;49.628;10.850;2023-09-18T07:07:48;25.00;67.50
44863;DHT22;30597;49.628;10.850;2023-09-18T07:10:14;25.00;67.50
44863;DHT22;30597;49.628;10.850;2023-09-18T07:12:39;25.10;67.60
44863;DHT22;30597;49.628;10.850;2023-09-18T07:15:05;25.20;67.60
44863;DHT22;30597;49.628;10.850;2023-09-18T07:17:35;25.10;67.50
44863;DHT22;30597;49.628;10.850;2023-09-18T07:20:01;25.00;67.80
44863;DHT22;30597;49.628;10.850;2023-09-18T07:22:26;25.00;68.00
44863;DHT22;30597;49.628;10.850;2023-09-18T07:24:52;25.10;67.60
44863;DHT22;30597;49.628;10.850;2023-09-18T07:27:17;25.10;67.70
44863;DHT22;30597;49.628;10.850;2023-09-18T07:29:43;25.10;67.60
44863;DHT22;30597;49.628;10.850;2023-09-18T07:32:08;25.20;67.70
44863;DHT22;30597;49.628;10.850;2023-09-18T07:34:34;25.20;67.40
44863;DHT22;30597;49.628;10.850;2023-09-18T07:37:00;25.10;67.70
44863;DHT22;30597;49.628;10.850;2023-09-18T07:39:26;25.10;67.60
44863;DHT22;30597;49.628;10.850;2023-09-18T07:41:51;25.10;67.80
44863;DHT22;30597;49.628;10.850;2023-09-18T07:44:21;25.10;68.00
44863;DHT22;30597;49.628;10.850;2023-09-18T07:46:46;25.10;67.90
44863;DHT22;30597;49.628;10.850;2023-09-18T07:49:13;25.10;67.50
44863;DHT22;30597;49.628;10.850;2023-09-18T07:51:39;25.20;67.00
44863;DHT22;30597;49.628;10.850;2023-09-18T07:54:07;25.10;66.90
44863;DHT22;30597;49.628;10.850;2023-09-18T07:56:32;25.10;67.00
44863;DHT22;30597;49.628;10.850;2023-09-18T07:59:00;25.20;67.30
44863;DHT22;30597;49.628;10.850;2023-09-18T08:01:25;25.20;67.90
44863;DHT22;30597;49.628;10.850;2023-09-18T08:03:51;25.20;67.80
44863;DHT22;30597;49.628;10.850;2023-09-18T08:06:17;25.40;68.10
44863;DHT22;30597;49.628;10.850;2023-09-18T08:08:44;25.40;68.20
44863;DHT22;30597;49.628;10.850;2023-09-18T08:11:10;25.30;68.00
44863;DHT22;30597;49.628;10.850;2023-09-18T08:13:36;25.40;68.00
44863;DHT22;30597;49.628;10.850;2023-09-18T08:16:05;25.30;67.90
44863;DHT22;30597;49.628;10.850;2023-09-18T08:18:31;25.40;68.00
44863;DHT22;30597;49.628;10.850;2023-09-18T08:20:57;25.40;67.80
44863;DHT22;30597;49.628;10.850;2023-09-18T08:23:24;25.40;67.90
44863;DHT22;30597;49.628;10.850;2023-09-18T08:25:50;25.40;67.90
44863;DHT22;30597;49.628;10.850;2023-09-18T08:28:18;25.40;67.90
44863;DHT22;30597;49.628;10.850;2023-09-18T08:30:43;25.50;68.00
44863;DHT22;30597;49.628;10.850;2023-09-18T08:33:13;25.40;67.70
44863;DHT22;30597;49.628;10.850;2023-09-18T08:35:39;25.50;67.80
44863;DHT22;30597;49.628;10.850;2023-09-18T08:38:05;25.60;67.60
44863;DHT22;30597;49.628;10.850;2023-09-18T08:40:30;25.60;67.70
44863;DHT22;30597;49.628;10.850;2023-09-18T08:42:56;25.50;67.40
44863;DHT22;30597;49.628;10.850;2023-09-18T08:45:35;25.50;67.60
44863;DHT22;30597;49.628;10.850;2023-09-18T08:48:03;25.50;67.60
44863;DHT22;30597;49.628;10.850;2023-09-18T08:50:29;25.50;67.50
44863;DHT22;30597;49.628;10.850;2023-09-18T08:52:55;25.50;67.50
44863;DHT22;30597;49.628;10.850;2023-09-18T08:55:21;25.50;67.50
44863;DHT22;30597;49.628;10.850;2023-09-18T08:57:48;25.50;67.60
44863;DHT22;30597;49.628;10.850;2023-09-18T09:00:14;25.70;67.60
44863;DHT22;30597;49.628;10.850;2023-09-18T09:02:45;25.60;68.20
44863;DHT22;30597;49.628;10.850;2023-09-18T09:05:14;25.50;67.60
44863;DHT22;30597;49.628;10.850;2023-09-18T09:07:40;25.60;67.60
44863;DHT22;30597;49.628;10.850;2023-09-18T09:10:05;25.50;67.50
44863;DHT22;30597;49.628;10.850;2023-09-18T09:12:51;25.60;67.50
44863;DHT22;30597;49.628;10.850;2023-09-18T09:15:19;25.50;67.50
44863;DHT22;30597;49.628;10.850;2023-09-18T09:17:45;25.60;67.60
44863;DHT22;30597;49.628;10.850;2023-09-18T09:20:13;25.60;67.50
44863;DHT22;30597;49.628;10.850;2023-09-18T09:22:40;25.60;67.10
44863;DHT22;30597;49.628;10.850;2023-09-18T09:25:26;25.60;67.10
44863;DHT22;30597;49.628;10.850;2023-09-18T09:27:53;25.70;67.10
44863;DHT22;30597;49.628;10.850;2023-09-18T09:30:24;25.60;67.10
44863;DHT22;30597;49.628;10.850;2023-09-18T09:32:52;25.60;66.60
44863;DHT22;30597;49.628;10.850;2023-09-18T09:35:28;25.50;66.90
44863;DHT22;30597;49.628;10.850;2023-09-18T09:37:58;25.50;67.10
44863;DHT22;30597;49.628;10.850;2023-09-18T09:40:26;25.50;67.00
44863;DHT22;30597;49.628;10.850;2023-09-18T09:42:54;25.50;66.40
44863;DHT22;30597;49.628;10.850;2023-09-18T09:45:29;25.50;66.80
44863;DHT22;30597;49.628;10.850;2023-09-18T09:48:04;25.50;66.70
44863;DHT22;30597;49.628;10.850;2023-09-18T09:50:31;25.50;66.30
44863;DHT22;30597;49.628;10.850;2023-09-18T09:52:58;25.50;65.90
44863;DHT22;30597;49.628;10.850;2023-09-18T09:55:31;25.40;65.30
44863;DHT22;30597;49.628;10.850;2023-09-18T09:58:02;25.50;64.90
44863;DHT22;30597;49.628;10.850;2023-09-18T10:00:46;25.50;64.10
44863;DHT22;30597;49.628;10.850;2023-09-18T10:03:14;25.40;64.60
44863;DHT22;30597;49.628;10.850;2023-09-18T10:05:43;25.40;64.20
44863;DHT22;30597;49.628;10.850;2023-09-18T10:08:16;25.40;64.60
44863;DHT22;30597;49.628;10.850;2023-09-18T10:10:50;25.40;64.40
44863;DHT22;30597;49.628;10.850;2023-09-18T10:13:20;25.40;64.50
44863;DHT22;30597;49.628;10.850;2023-09-18T10:15:51;25.40;64.50
44863;DHT22;30597;49.628;10.850;2023-09-18T10:18:26;25.40;64.40
44863;DHT22;30597;49.628;10.850;2023-09-18T10:20:59;25.40;64.00
44863;DHT22;30597;49.628;10.850;2023-09-18T10:26:13;25.40;64.40
44863;DHT22;30597;49.628;10.850;2023-09-18T10:28:43;25.40;64.40
44863;DHT22;30597;49.628;10.850;2023-09-18T10:31:09;25.40;64.10
44863;DHT22;30597;49.628;10.850;2023-09-18T10:33:37;25.40;64.40
44863;DHT22;30597;49.628;10.850;2023-09-18T10:36:04;25.40;64.40
44863;DHT22;30597;49.628;10.850;2023-09-18T10:38:32;25.40;64.40
44863;DHT22;30597;49.628;10.850;2023-09-18T10:40:58;25.40;64.40
44863;DHT22;30597;49.628;10.850;2023-09-18T10:43:24;25.40;64.40
44863;DHT22;30597;49.628;10.850;2023-09-18T10:45:50;25.40;64.00
44863;DHT22;30597;49.628;10.850;2023-09-18T10:48:19;25.30;64.00
44863;DHT22;30597;49.628;10.850;2023-09-18T10:50:45;25.30;64.30
44863;DHT22;30597;49.628;10.850;2023-09-18T10:53:11;25.30;64.20
44863;DHT22;30597;49.628;10.850;2023-09-18T10:55:37;25.30;64.20
44863;DHT22;30597;49.628;10.850;2023-09-18T10:58:04;25.30;64.20
44863;DHT22;30597;49.628;10.850;2023-09-18T11:00:31;25.30;64.10
44863;DHT22;30597;49.628;10.850;2023-09-18T11:03:12;25.30;64.20
44863;DHT22;30597;49.628;10.850;2023-09-18T11:05:38;25.30;64.20
44863;DHT22;30597;49.628;10.850;2023-09-18T11:11:03;25.30;64.40
44863;DHT22;30597;49.628;10.850;2023-09-18T11:13:40;25.30;64.30
44863;DHT22;30597;49.628;10.850;2023-09-18T11:21:26;25.20;64.20
44863;DHT22;30597;49.628;10.850;2023-09-18T11:24:04;25.20;64.20
44863;DHT22;30597;49.628;10.850;2023-09-18T11:26:34;25.20;64.30
44863;DHT22;30597;49.628;10.850;2023-09-18T11:29:11;25.20;64.30
44863;DHT22;30597;49.628;10.850;2023-09-18T11:31:44;25.20;64.30
44863;DHT22;30597;49.628;10.850;2023-09-18T11:36:45;25.20;64.20
44863;DHT22;30597;49.628;10.850;2023-09-18T11:39:12;25.20;64.20
44863;DHT22;30597;49.628;10.850;2023-09-18T11:41:38;25.30;64.30
44863;DHT22;30597;49.628;10.850;2023-09-18T11:46:39;25.10;64.20
44863;DHT22;30597;49.628;10.850;2023-09-18T11:49:09;25.20;64.20
44863;DHT22;30597;49.628;10.850;2023-09-18T11:51:36;25.20;64.30
44863;DHT22;30597;49.628;10.850;2023-09-18T11:54:02;25.20;64.20
44863;DHT22;30597;49.628;10.850;2023-09-18T11:56:29;25.20;64.20
44863;DHT22;30597;49.628;10.850;2023-09-18T11:58:55;25.20;64.20
44863;DHT22;30597;49.628;10.850;2023-09-18T12:01:21;25.20;64.10
44863;DHT22;30597;49.628;10.850;2023-09-18T12:03:54;25.10;64.00
44863;DHT22;30597;49.628;10.850;2023-09-18T12:06:20;25.10;64.30
44863;DHT22;30597;49.628;10.850;2023-09-18T12:08:46;25.10;64.20
44863;DHT22;30597;49.628;10.850;2023-09-18T12:11:12;25.10;64.20
44863;DHT22;30597;49.628;10.850;2023-09-18T12:13:42;25.10;64.50
44863;DHT22;30597;49.628;10.850;2023-09-18T12:16:08;25.00;64.30
44863;DHT22;30597;49.628;10.850;2023-09-18T12:18:35;25.00;64.30
44863;DHT22;30597;49.628;10.850;2023-09-18T12:21:06;25.00;64.30
44863;DHT22;30597;49.628;10.850;2023-09-18T12:23:39;25.10;64.20
44863;DHT22;30597;49.628;10.850;2023-09-18T12:26:05;25.00;64.40
44863;DHT22;30597;49.628;10.850;2023-09-18T12:28:34;25.00;64.30
44863;DHT22;30597;49.628;10.850;2023-09-18T12:31:00;25.00;64.40
44863;DHT22;30597;49.628;10.850;2023-09-18T12:33:33;24.90;64.30
44863;DHT22;30597;49.628;10.850;2023-09-18T12:35:59;24.90;64.30
44863;DHT22;30597;49.628;10.850;2023-09-18T12:38:25;24.90;64.20
44863;DHT22;30597;49.628;10.850;2023-09-18T12:40:55;24.90;64.30
44863;DHT22;30597;49.628;10.850;2023-09-18T12:43:22;24.90;64.30
44863;DHT22;30597;49.628;10.850;2023-09-18T12:45:49;24.90;64.50
44863;DHT22;30597;49.628;10.850;2023-09-18T12:48:15;24.90;64.50
44863;DHT22;30597;49.628;10.850;2023-09-18T12:50:41;24.80;64.40
44863;DHT22;30597;49.628;10.850;2023-09-18T12:53:14;24.90;64.60
44863;DHT22;30597;49.628;10.850;2023-09-18T12:55:41;24.80;64.60
44863;DHT22;30597;49.628;10.850;2023-09-18T12:58:11;24.80;64.60
44863;DHT22;30597;49.628;10.850;2023-09-18T13:00:36;24.80;64.60
44863;DHT22;30597;49.628;10.850;2023-09-18T13:03:03;24.90;64.50
44863;DHT22;30597;49.628;10.850;2023-09-18T13:05:30;24.80;64.50
44863;DHT22;30597;49.628;10.850;2023-09-18T13:08:04;24.80;64.60
44863;DHT22;30597;49.628;10.850;2023-09-18T13:10:42;24.80;64.70
44863;DHT22;30597;49.628;10.850;2023-09-18T13:13:19;24.80;64.70
44863;DHT22;30597;49.628;10.850;2023-09-18T13:15:46;24.80;64.80
44863;DHT22;30597;49.628;10.850;2023-09-18T13:18:13;24.80;64.70
44863;DHT22;30597;49.628;10.850;2023-09-18T13:20:39;24.70;64.70
44863;DHT22;30597;49.628;10.850;2023-09-18T13:23:06;24.70;64.70
44863;DHT22;30597;49.628;10.850;2023-09-18T13:25:40;24.70;64.70
44863;DHT22;30597;49.628;10.850;2023-09-18T13:28:11;24.70;64.70
44863;DHT22;30597;49.628;10.850;2023-09-18T13:30:39;24.70;64.80
44863;DHT22;30597;49.628;10.850;2023-09-18T13:33:07;24.70;64.70
44863;DHT22;30597;49.628;10.850;2023-09-18T13:35:34;24.70;64.80
44863;DHT22;30597;49.628;10.850;2023-09-18T13:38:00;24.80;64.90
44863;DHT22;30597;49.628;10.850;2023-09-18T13:40:26;24.70;64.60
44863;DHT22;30597;49.628;10.850;2023-09-18T13:42:53;24.70;64.80
44863;DHT22;30597;49.628;10.850;2023-09-18T13:45:19;24.70;64.70
44863;DHT22;30597;49.628;10.850;2023-09-18T13:47:45;24.70;64.70
44863;DHT22;30597;49.628;10.850;2023-09-18T13:50:10;24.70;64.70
44863;DHT22;30597;49.628;10.850;2023-09-18T13:52:38;24.70;64.80
44863;DHT22;30597;49.628;10.850;2023-09-18T13:55:04;24.60;64.60
44863;DHT22;30597;49.628;10.850;2023-09-18T13:57:31;24.70;64.90
44863;DHT22;30597;49.628;10.850;2023-09-18T13:59:57;24.60;64.80
44863;DHT22;30597;49.628;10.850;2023-09-18T14:02:22;24.60;64.70
44863;DHT22;30597;49.628;10.850;2023-09-18T14:04:52;24.60;64.80
44863;DHT22;30597;49.628;10.850;2023-09-18T14:07:18;24.60;64.80
44863;DHT22;30597;49.628;10.850;2023-09-18T14:09:43;24.70;64.90
44863;DHT22;30597;49.628;10.850;2023-09-18T14:12:09;24.50;64.70
44863;DHT22;30597;49.628;10.850;2023-09-18T14:14:34;24.50;64.80
44863;DHT22;30597;49.628;10.850;2023-09-18T14:17:01;24.50;64.70
44863;DHT22;30597;49.628;10.850;2023-09-18T14:19:27;24.50;65.00
44863;DHT22;30597;49.628;10.850;2023-09-18T14:21:53;24.50;64.90
44863;DHT22;30597;49.628;10.850;2023-09-18T14:24:19;24.50;64.90
44863;DHT22;30597;49.628;10.850;2023-09-18T14:26:51;24.50;64.90
44863;DHT22;30597;49.628;10.850;2023-09-18T14:29:16;24.50;65.00
44863;DHT22;30597;49.628;10.850;2023-09-18T14:31:42;24.50;64.90
44863;DHT22;30597;49.628;10.850;2023-09-18T14:34:09;24.50;65.00
44863;DHT22;30597;49.628;10.850;2023-09-18T14:36:35;24.50;64.90
44863;DHT22;30597;49.628;10.850;2023-09-18T14:39:05;24.50;65.10
44863;DHT22;30597;49.628;10.850;2023-09-18T14:41:33;24.50;65.10
44863;DHT22;30597;49.628;10.850;2023-09-18T14:43:58;24.50;65.00
44863;DHT22;30597;49.628;10.850;2023-09-18T14:46:25;24.50;65.10
44863;DHT22;30597;49.628;10.850;2023-09-18T14:48:50;24.40;65.00
44863;DHT22;30597;49.628;10.850;2023-09-18T14:51:16;24.50;65.00
44863;DHT22;30597;49.628;10.850;2023-09-18T14:53:42;24.50;65.10
44863;DHT22;30597;49.628;10.850;2023-09-18T14:56:08;24.50;65.00
44863;DHT22;30597;49.628;10.850;2023-09-18T14:58:33;24.50;65.00
44863;DHT22;30597;49.628;10.850;2023-09-18T15:00:59;24.50;64.90
44863;DHT22;30597;49.628;10.850;2023-09-18T15:03:25;24.50;65.00
44863;DHT22;30597;49.628;10.850;2023-09-18T15:05:51;24.50;64.90
44863;DHT22;30597;49.628;10.850;2023-09-18T15:08:18;24.50;65.10
44863;DHT22;30597;49.628;10.850;2023-09-18T15:10:45;24.50;65.00
44863;DHT22;30597;49.628;10.850;2023-09-18T15:13:10;24.50;65.70
44863;DHT22;30597;49.628;10.850;2023-09-18T15:15:36;24.50;64.80
44863;DHT22;30597;49.628;10.850;2023-09-18T15:18:02;24.50;64.80
44863;DHT22;30597;49.628;10.850;2023-09-18T15:20:27;24.50;64.90
44863;DHT22;30597;49.628;10.850;2023-09-18T15:22:53;24.50;64.90
44863;DHT22;30597;49.628;10.850;2023-09-18T15:25:21;24.50;65.00
44863;DHT22;30597;49.628;10.850;2023-09-18T15:27:47;24.40;64.80
44863;DHT22;30597;49.628;10.850;2023-09-18T15:30:12;24.40;64.80
44863;DHT22;30597;49.628;10.850;2023-09-18T15:32:49;24.40;64.70